createdAt,value
2022-09-25T00:01:53.564Z,20.23
2022-09-25T00:04:27.714Z,21.33
2022-09-25T00:07:01.706Z,19.02
2022-09-25T00:09:35.775Z,20.40
2022-09-25T00:12:09.837Z,16.27
2022-09-25T00:14:43.894Z,18.83
2022-09-25T00:17:19.605Z,18.58
2022-09-25T00:19:52.709Z,17.30
2022-09-25T00:22:27.021Z,18.33
2022-09-25T00:25:03.572Z,21.40
2022-09-25T00:27:37.816Z,21.48
2022-09-25T00:30:14.214Z,16.90
2022-09-25T00:32:49.658Z,18.38
2022-09-25T00:35:23.696Z,17.45
2022-09-25T00:37:57.706Z,15.90
2022-09-25T00:40:31.766Z,19.83
2022-09-25T00:43:11.189Z,15.00
2022-09-25T00:45:45.797Z,16.55
2022-09-25T00:48:21.282Z,16.17
2022-09-25T00:50:56.944Z,18.33
2022-09-25T00:53:33.278Z,16.98
2022-09-25T00:56:08.618Z,20.05
2022-09-25T00:58:46.623Z,15.48
2022-09-25T01:01:22.559Z,16.08
2022-09-25T01:03:57.972Z,15.82
2022-09-25T01:06:33.187Z,17.23
2022-09-25T01:09:07.921Z,17.65
2022-09-25T01:11:41.887Z,14.57
2022-09-25T01:14:17.592Z,15.55
2022-09-25T01:16:58.139Z,15.45
2022-09-25T01:19:48.179Z,17.95
2022-09-25T01:22:36.428Z,17.77
2022-09-25T01:25:16.687Z,17.40
2022-09-25T01:28:15.574Z,15.30
2022-09-25T01:31:00.558Z,15.55
2022-09-25T01:33:42.789Z,19.05
2022-09-25T01:36:24.155Z,15.27
2022-09-25T01:39:08.424Z,15.60
2022-09-25T01:41:48.154Z,17.45
2022-09-25T01:44:29.095Z,15.80
2022-09-25T01:47:10.563Z,15.95
2022-09-25T01:49:49.840Z,16.13
2022-09-25T01:52:28.510Z,16.13
2022-09-25T01:55:09.340Z,16.67
2022-09-25T01:57:49.118Z,17.80
2022-09-25T02:00:25.372Z,17.48
2022-09-25T02:03:08.342Z,17.50
2022-09-25T02:05:47.803Z,18.45
2022-09-25T02:08:26.197Z,14.38
2022-09-25T02:11:03.069Z,13.95
2022-09-25T02:13:42.098Z,13.98
2022-09-25T02:16:19.967Z,15.45
2022-09-25T02:19:13.056Z,16.08
2022-09-25T02:21:57.077Z,13.82
2022-09-25T02:24:37.402Z,15.75
2022-09-25T02:27:11.541Z,17.42
2022-09-25T02:29:45.608Z,15.45
2022-09-25T02:32:22.822Z,12.98
2022-09-25T02:34:59.984Z,17.90
2022-09-25T02:37:33.906Z,13.88
2022-09-25T02:40:08.877Z,16.25
2022-09-25T02:42:49.593Z,13.65
2022-09-25T02:45:35.553Z,13.68
2022-09-25T02:48:16.785Z,18.73
2022-09-25T02:50:58.704Z,14.27
2022-09-25T02:53:39.983Z,14.63
2022-09-25T02:56:18.459Z,14.90
2022-09-25T02:58:55.608Z,12.65
2022-09-25T03:01:33.100Z,13.40
2022-09-25T03:04:08.226Z,13.82
2022-09-25T03:06:44.658Z,13.68
2022-09-25T03:09:22.438Z,13.18
2022-09-25T03:11:57.754Z,13.45
2022-09-25T03:14:31.835Z,13.68
2022-09-25T03:17:08.418Z,14.10
2022-09-25T03:19:42.526Z,15.68
2022-09-25T03:22:19.248Z,13.57
2022-09-25T03:24:55.830Z,15.25
2022-09-25T03:27:30.173Z,13.55
2022-09-25T03:30:04.226Z,11.45
2022-09-25T03:32:39.210Z,12.63
2022-09-25T03:35:13.286Z,12.20
2022-09-25T03:37:48.691Z,13.10
2022-09-25T03:40:22.745Z,13.50
2022-09-25T03:42:56.861Z,13.73
2022-09-25T03:45:31.090Z,11.70
2022-09-25T03:48:05.083Z,13.80
2022-09-25T03:50:39.477Z,13.80
2022-09-25T03:53:14.815Z,12.48
2022-09-25T03:55:49.127Z,14.13
2022-09-25T03:58:23.328Z,17.23
2022-09-25T04:00:58.395Z,10.88
2022-09-25T04:03:34.016Z,14.75
2022-09-25T04:06:09.948Z,12.77
2022-09-25T04:08:48.310Z,12.45
2022-09-25T04:11:24.310Z,16.48
2022-09-25T04:13:58.304Z,13.15
2022-09-25T04:16:32.622Z,12.18
2022-09-25T04:19:07.097Z,11.88
2022-09-25T04:21:41.214Z,14.00
2022-09-25T04:24:34.040Z,12.75
2022-09-25T04:27:08.941Z,13.38
2022-09-25T04:29:42.805Z,13.75
2022-09-25T04:32:35.189Z,11.45
2022-09-25T04:35:09.787Z,13.95
2022-09-25T04:37:43.851Z,10.98
2022-09-25T04:40:19.530Z,12.18
2022-09-25T04:42:57.751Z,14.90
2022-09-25T04:45:34.310Z,13.25
2022-09-25T04:48:08.366Z,11.82
2022-09-25T04:50:48.469Z,11.43
2022-09-25T04:53:23.105Z,11.63
2022-09-25T04:56:03.197Z,12.05
2022-09-25T04:58:37.347Z,11.23
2022-09-25T05:01:11.420Z,12.30
2022-09-25T05:03:45.355Z,12.20
2022-09-25T05:06:19.293Z,14.73
2022-09-25T05:08:53.251Z,11.88
2022-09-25T05:11:29.006Z,11.65
2022-09-25T05:14:03.271Z,14.18
2022-09-25T05:16:37.196Z,11.88
2022-09-25T05:19:11.292Z,11.43
2022-09-25T05:21:45.605Z,14.55
2022-09-25T05:24:19.499Z,12.32
2022-09-25T05:26:54.854Z,12.30
2022-09-25T05:29:28.827Z,10.73
2022-09-25T05:32:03.105Z,12.45
2022-09-25T05:34:37.098Z,9.80
2022-09-25T05:37:10.993Z,11.38
2022-09-25T05:39:45.030Z,11.85
2022-09-25T05:42:20.403Z,12.30
2022-09-25T05:44:54.395Z,11.18
2022-09-25T05:47:28.411Z,11.60
2022-09-25T05:50:04.464Z,13.70
2022-09-25T05:52:38.737Z,12.95
2022-09-25T05:55:12.920Z,12.10
2022-09-25T05:57:50.694Z,14.02
2022-09-25T06:00:24.699Z,12.32
2022-09-25T06:02:58.657Z,12.20
2022-09-25T06:05:32.772Z,13.38
2022-09-25T06:08:06.952Z,14.38
2022-09-25T06:10:41.423Z,14.48
2022-09-25T06:13:17.091Z,13.90
2022-09-25T06:15:55.394Z,15.18
2022-09-25T06:18:29.772Z,13.27
2022-09-25T06:21:06.556Z,19.23
2022-09-25T06:23:40.786Z,17.85
2022-09-25T06:26:15.142Z,15.80
2022-09-25T06:28:51.023Z,18.25
2022-09-25T06:31:25.090Z,17.30
2022-09-25T06:33:59.181Z,22.80
2022-09-25T06:36:33.401Z,18.45
2022-09-25T06:39:08.777Z,19.90
2022-09-25T06:41:42.876Z,19.95
2022-09-25T06:44:20.319Z,23.48
2022-09-25T06:46:54.661Z,16.70
2022-09-25T06:49:28.805Z,27.30
2022-09-25T06:52:03.266Z,18.42
2022-09-25T06:54:40.556Z,21.63
2022-09-25T06:57:17.319Z,29.40
2022-09-25T06:59:52.783Z,20.45
2022-09-25T07:02:44.331Z,16.00
2022-09-25T07:05:19.453Z,19.70
2022-09-25T07:07:53.537Z,20.33
2022-09-25T07:10:27.899Z,18.35
2022-09-25T07:13:01.907Z,17.15
2022-09-25T07:15:37.763Z,21.95
2022-09-25T07:18:11.875Z,20.40
2022-09-25T07:20:47.205Z,22.55
2022-09-25T07:23:22.564Z,31.17
2022-09-25T07:25:56.737Z,22.70
2022-09-25T07:28:30.626Z,24.55
2022-09-25T07:31:18.205Z,24.33
2022-09-25T07:33:52.202Z,23.45
2022-09-25T07:36:26.475Z,24.42
2022-09-25T07:39:00.558Z,23.50
2022-09-25T07:41:35.143Z,23.45
2022-09-25T07:44:27.992Z,23.60
2022-09-25T07:47:05.457Z,26.77
2022-09-25T07:49:40.329Z,19.98
2022-09-25T07:52:14.485Z,28.05
2022-09-25T07:54:49.009Z,30.58
2022-09-25T07:57:23.229Z,29.10
2022-09-25T07:59:57.501Z,21.73
2022-09-25T08:02:35.353Z,23.08
2022-09-25T08:05:11.539Z,21.60
2022-09-25T08:07:45.568Z,25.35
2022-09-25T08:10:20.275Z,27.00
2022-09-25T08:12:54.438Z,23.17
2022-09-25T08:15:28.575Z,29.08
2022-09-25T08:18:04.267Z,35.42
2022-09-25T08:20:40.323Z,26.25
2022-09-25T08:23:14.468Z,22.83
2022-09-25T08:25:49.842Z,28.52
2022-09-25T08:28:24.464Z,29.80
2022-09-25T08:31:00.491Z,31.20
2022-09-25T08:33:36.680Z,31.02
2022-09-25T08:36:11.025Z,31.48
2022-09-25T08:38:45.672Z,28.25
2022-09-25T08:41:24.130Z,29.60
2022-09-25T08:44:04.100Z,28.23
2022-09-25T08:47:02.051Z,28.45
2022-09-25T08:49:42.091Z,25.83
2022-09-25T08:52:18.623Z,33.72
2022-09-25T08:54:53.164Z,23.95
2022-09-25T08:57:37.301Z,26.52
2022-09-25T09:02:54.854Z,22.33
2022-09-25T09:05:33.998Z,23.13
2022-09-25T09:08:11.883Z,22.58
2022-09-25T09:10:50.319Z,24.63
2022-09-25T09:13:30.783Z,18.05
2022-09-25T09:16:10.641Z,22.27
2022-09-25T09:18:45.252Z,18.50
2022-09-25T09:21:26.705Z,19.33
2022-09-25T09:24:08.045Z,18.77
2022-09-25T09:26:54.919Z,19.63
2022-09-25T09:29:44.353Z,17.33
2022-09-25T09:32:33.136Z,17.63
2022-09-25T09:35:16.875Z,17.33
2022-09-25T09:38:00.016Z,17.02
2022-09-25T09:41:00.195Z,14.05
2022-09-25T09:43:58.928Z,16.10
2022-09-25T09:46:40.735Z,16.65
2022-09-25T09:49:19.927Z,14.82
2022-09-25T09:51:59.076Z,14.30
2022-09-25T09:54:46.138Z,17.00
2022-09-25T09:57:23.257Z,17.73
2022-09-25T10:00:04.562Z,13.52
2022-09-25T10:02:48.421Z,15.90
2022-09-25T10:05:26.719Z,14.88
2022-09-25T10:08:00.984Z,16.33
2022-09-25T10:10:39.000Z,15.23
2022-09-25T10:13:19.351Z,13.88
2022-09-25T10:15:57.905Z,14.80
2022-09-25T10:18:38.142Z,14.65
2022-09-25T10:21:15.378Z,14.20
2022-09-25T10:23:51.374Z,12.25
2022-09-25T10:26:29.587Z,15.00
2022-09-25T10:29:05.484Z,12.18
2022-09-25T10:31:41.749Z,17.48
2022-09-25T10:34:22.496Z,12.25
2022-09-25T10:36:56.609Z,11.93
2022-09-25T10:39:43.974Z,11.45
2022-09-25T10:42:41.197Z,11.02
2022-09-25T10:45:30.646Z,11.55
2022-09-25T10:48:46.108Z,11.25
2022-09-25T10:51:21.551Z,12.82
2022-09-25T10:54:13.268Z,14.43
2022-09-25T10:56:49.025Z,14.55
2022-09-25T10:59:25.774Z,9.38
2022-09-25T11:01:59.994Z,14.10
2022-09-25T11:04:35.933Z,12.57
2022-09-25T11:07:21.125Z,11.63
2022-09-25T11:09:59.951Z,13.85
2022-09-25T11:12:34.784Z,12.75
2022-09-25T11:15:19.761Z,9.55
2022-09-25T11:17:55.228Z,9.52
2022-09-25T11:20:30.996Z,12.10
2022-09-25T11:23:21.338Z,13.18
2022-09-25T11:26:06.071Z,12.90
2022-09-25T11:28:45.788Z,11.10
2022-09-25T11:31:25.920Z,9.52
2022-09-25T11:34:12.638Z,11.25
2022-09-25T11:36:50.189Z,9.40
2022-09-25T11:39:45.251Z,11.27
2022-09-25T11:42:27.021Z,14.32
2022-09-25T11:45:09.909Z,10.00
2022-09-25T11:47:54.823Z,10.82
2022-09-25T11:50:37.494Z,13.02
2022-09-25T11:53:19.840Z,11.68
2022-09-25T11:56:12.366Z,12.70
2022-09-25T11:59:02.530Z,14.00
2022-09-25T12:01:41.647Z,19.80
2022-09-25T12:04:44.830Z,20.95
2022-09-25T12:07:33.564Z,27.58
2022-09-25T12:10:21.095Z,23.80
2022-09-25T12:13:03.377Z,26.92
2022-09-25T12:15:52.258Z,21.35
2022-09-25T12:18:42.582Z,19.15
2022-09-25T12:21:22.402Z,17.88
2022-09-25T12:24:03.862Z,22.05
2022-09-25T12:26:48.117Z,19.30
2022-09-25T12:29:37.645Z,21.65
2022-09-25T12:32:26.805Z,14.02
2022-09-25T12:35:15.264Z,18.20
2022-09-25T12:37:54.196Z,18.27
2022-09-25T12:40:34.047Z,25.42
2022-09-25T12:43:14.983Z,22.58
2022-09-25T12:45:52.936Z,12.15
2022-09-25T12:48:35.331Z,15.77
2022-09-25T12:51:14.549Z,18.80
2022-09-25T12:53:57.093Z,15.93
2022-09-25T12:56:37.749Z,14.88
2022-09-25T12:59:17.580Z,14.88
2022-09-25T13:01:59.039Z,11.70
2022-09-25T13:04:44.685Z,16.88
2022-09-25T13:07:25.053Z,13.98
2022-09-25T13:10:03.882Z,13.55
2022-09-25T13:12:39.225Z,12.57
2022-09-25T13:15:16.781Z,11.77
2022-09-25T13:17:51.330Z,19.08
2022-09-25T13:20:53.597Z,14.75
2022-09-25T13:23:37.822Z,18.90
2022-09-25T13:26:15.114Z,15.48
2022-09-25T13:28:53.776Z,11.30
2022-09-25T13:31:29.827Z,18.10
2022-09-25T13:34:07.657Z,19.38
2022-09-25T13:36:47.448Z,15.05
2022-09-25T13:39:45.034Z,14.75
2022-09-25T13:42:27.289Z,12.27
2022-09-25T13:45:09.107Z,12.80
2022-09-25T13:48:07.219Z,10.05
2022-09-25T13:50:43.941Z,8.75
2022-09-25T13:53:34.978Z,9.02
2022-09-25T13:56:29.878Z,12.20
2022-09-25T13:59:24.949Z,13.10
2022-09-25T14:02:24.730Z,13.02
2022-09-25T14:04:58.939Z,10.77
2022-09-25T14:07:34.003Z,11.05
2022-09-25T14:10:12.826Z,10.18
2022-09-25T14:12:49.295Z,9.98
2022-09-25T14:15:30.601Z,8.80
2022-09-25T14:18:08.515Z,7.88
2022-09-25T14:20:45.197Z,8.82
2022-09-25T14:23:26.435Z,9.95
2022-09-25T14:26:01.230Z,12.60
2022-09-25T14:28:45.296Z,9.02
2022-09-25T14:34:33.695Z,10.32
2022-09-25T14:37:22.496Z,10.68
2022-09-25T14:40:05.782Z,10.63
2022-09-25T14:42:56.687Z,7.15
2022-09-25T14:46:03.177Z,8.55
2022-09-25T14:48:45.076Z,7.28
2022-09-25T14:51:25.593Z,7.70
2022-09-25T14:54:03.541Z,8.57
2022-09-25T14:56:38.298Z,7.78
2022-09-25T14:59:18.005Z,9.90
2022-09-25T15:01:54.279Z,10.48
2022-09-25T15:04:32.413Z,10.43
2022-09-25T15:07:16.619Z,7.95
2022-09-25T15:09:55.322Z,12.05
2022-09-25T15:12:31.566Z,7.57
2022-09-25T15:15:08.717Z,7.80
2022-09-25T15:17:49.602Z,8.65
2022-09-25T15:20:27.360Z,9.63
2022-09-25T15:23:05.397Z,8.90
2022-09-25T15:25:43.529Z,7.97
2022-09-25T15:28:19.805Z,10.35
2022-09-25T15:30:59.763Z,8.95
2022-09-25T15:33:37.268Z,10.98
2022-09-25T15:36:20.363Z,8.25
2022-09-25T15:38:55.408Z,10.30
2022-09-25T15:41:30.553Z,8.77
2022-09-25T15:44:19.031Z,10.02
2022-09-25T15:46:55.164Z,11.52
2022-09-25T15:49:34.254Z,11.40
2022-09-25T15:52:24.170Z,13.73
2022-09-25T15:55:03.416Z,11.68
2022-09-25T15:57:37.886Z,9.75
2022-09-25T16:00:37.813Z,11.40
2022-09-25T16:03:34.653Z,12.32
2022-09-25T16:06:14.052Z,11.85
2022-09-25T16:08:51.339Z,9.00
2022-09-25T16:11:26.859Z,11.02
2022-09-25T16:14:22.645Z,9.60
2022-09-25T16:16:58.025Z,11.23
2022-09-25T16:19:35.068Z,11.48
2022-09-25T16:22:23.742Z,12.32
2022-09-25T16:24:59.562Z,18.67
2022-09-25T16:27:35.758Z,12.15
2022-09-25T16:30:18.507Z,12.60
2022-09-25T16:32:56.455Z,17.30
2022-09-25T16:36:04.526Z,18.35
2022-09-25T16:38:33.200Z,16.13
2022-09-25T16:41:21.571Z,16.35
2022-09-25T16:44:14.263Z,12.13
2022-09-25T16:47:05.327Z,18.83
2022-09-25T16:49:39.312Z,14.55
2022-09-25T16:52:20.583Z,18.58
2022-09-25T16:54:57.072Z,13.27
2022-09-25T16:57:35.584Z,15.18
2022-09-25T17:00:15.597Z,14.43
2022-09-25T17:02:49.925Z,15.55
2022-09-25T17:05:27.743Z,16.65
2022-09-25T17:08:12.653Z,13.02
2022-09-25T17:10:48.191Z,16.67
2022-09-25T17:13:28.574Z,11.05
2022-09-25T17:16:02.817Z,13.93
2022-09-25T17:18:37.313Z,16.40
2022-09-25T17:21:15.268Z,15.70
2022-09-25T17:23:49.711Z,14.93
2022-09-25T17:26:25.922Z,15.45
2022-09-25T17:29:01.307Z,13.48
2022-09-25T17:31:35.922Z,12.88
2022-09-25T17:34:17.736Z,13.85
2022-09-25T17:36:52.399Z,16.02
2022-09-25T17:39:26.647Z,16.88
2022-09-25T17:42:01.223Z,19.98
2022-09-25T17:44:36.797Z,21.55
2022-09-25T17:47:12.701Z,17.85
2022-09-25T17:49:47.269Z,18.35
2022-09-25T17:52:22.813Z,20.90
2022-09-25T17:54:57.086Z,25.33
2022-09-25T17:57:31.225Z,17.55
2022-09-25T18:00:07.576Z,27.45
2022-09-25T18:02:41.964Z,26.02
2022-09-25T18:05:18.612Z,22.52
2022-09-25T18:07:52.797Z,25.38
2022-09-25T18:10:29.466Z,26.05
2022-09-25T18:13:04.152Z,20.40
2022-09-25T18:15:47.923Z,22.30
2022-09-25T18:18:23.531Z,16.90
2022-09-25T18:21:14.780Z,23.58
2022-09-25T18:23:49.241Z,24.42
2022-09-25T18:26:26.766Z,24.45
2022-09-25T18:29:03.093Z,22.23
2022-09-25T18:31:38.582Z,25.45
2022-09-25T18:34:12.926Z,24.02
2022-09-25T18:36:49.317Z,26.65
2022-09-25T18:39:23.728Z,26.50
2022-09-25T18:41:58.158Z,28.77
2022-09-25T18:44:38.456Z,30.15
2022-09-25T18:47:15.735Z,27.05
2022-09-25T18:52:51.754Z,29.38
2022-09-25T18:55:26.475Z,26.10
2022-09-25T18:58:01.772Z,30.08
2022-09-25T19:00:36.165Z,28.23
2022-09-25T19:03:11.621Z,30.88
2022-09-25T19:05:45.773Z,32.47
2022-09-25T19:08:20.020Z,30.80
2022-09-25T19:10:54.195Z,28.90
2022-09-25T19:13:29.520Z,36.53
2022-09-25T19:16:04.249Z,36.33
2022-09-25T19:18:40.394Z,36.47
2022-09-25T19:21:16.175Z,33.92
2022-09-25T19:23:50.945Z,31.05
2022-09-25T19:26:27.048Z,34.50
2022-09-25T19:29:01.867Z,35.08
2022-09-25T19:31:36.335Z,39.17
2022-09-25T19:34:11.819Z,36.13
2022-09-25T19:36:45.779Z,41.30
2022-09-25T19:39:20.012Z,40.97
2022-09-25T19:41:55.415Z,42.95
2022-09-25T19:44:32.476Z,43.30
2022-09-25T19:47:09.460Z,50.72
2022-09-25T19:49:45.010Z,50.72
2022-09-25T19:52:22.500Z,43.20
2022-09-25T19:54:56.630Z,47.50
2022-09-25T19:57:30.578Z,44.70
2022-09-25T20:00:05.284Z,49.38
2022-09-25T20:02:46.770Z,45.35
2022-09-25T20:05:22.355Z,44.92
2022-09-25T20:07:56.384Z,40.33
2022-09-25T20:10:30.909Z,47.25
2022-09-25T20:13:05.462Z,45.15
2022-09-25T20:15:39.906Z,43.50
2022-09-25T20:18:14.031Z,41.03
2022-09-25T20:20:51.999Z,41.72
2022-09-25T20:23:25.987Z,43.90
2022-09-25T20:26:09.389Z,40.28
2022-09-25T20:28:45.253Z,41.92
2022-09-25T20:31:19.585Z,41.28
2022-09-25T20:33:54.405Z,38.13
2022-09-25T20:36:30.469Z,42.42
2022-09-25T20:39:05.243Z,41.28
2022-09-25T20:41:39.304Z,37.55
2022-09-25T20:44:13.768Z,46.47
2022-09-25T20:46:48.128Z,34.50
2022-09-25T20:49:23.119Z,40.53
2022-09-25T20:51:58.532Z,39.47
2022-09-25T20:54:32.661Z,39.00
2022-09-25T20:57:06.658Z,41.63
2022-09-25T20:59:40.605Z,41.20
2022-09-25T21:02:14.806Z,41.20
2022-09-25T21:04:51.100Z,44.67
2022-09-25T21:07:27.006Z,36.45
2022-09-25T21:10:01.146Z,34.65
2022-09-25T21:12:35.466Z,38.22
2022-09-25T21:15:10.219Z,33.58
2022-09-25T21:17:44.362Z,32.00
2022-09-25T21:20:18.721Z,35.85
2022-09-25T21:22:54.299Z,35.17
2022-09-25T21:25:29.194Z,31.40
2022-09-25T21:28:03.621Z,32.13
2022-09-25T21:30:39.681Z,32.05
2022-09-25T21:33:14.000Z,34.92
2022-09-25T21:35:48.800Z,32.08
2022-09-25T21:38:24.155Z,39.78
2022-09-25T21:41:00.386Z,33.72
2022-09-25T21:43:35.802Z,30.75
2022-09-25T21:46:14.736Z,26.20
2022-09-25T21:48:50.459Z,30.67
2022-09-25T21:51:26.836Z,29.80
2022-09-25T21:54:02.536Z,31.27
2022-09-25T21:56:36.581Z,27.33
2022-09-25T21:59:10.723Z,32.47
2022-09-25T22:01:44.818Z,25.38
2022-09-25T22:04:18.959Z,24.95
2022-09-25T22:06:53.149Z,32.70
2022-09-25T22:09:28.724Z,27.45
2022-09-25T22:12:03.103Z,27.55
2022-09-25T22:14:37.627Z,28.25
2022-09-25T22:17:12.311Z,22.30
2022-09-25T22:19:46.407Z,24.40
2022-09-25T22:22:20.932Z,33.38
2022-09-25T22:24:56.811Z,24.58
2022-09-25T22:27:30.897Z,23.55
2022-09-25T22:30:05.146Z,22.65
2022-09-25T22:32:39.108Z,27.42
2022-09-25T22:35:13.113Z,26.27
2022-09-25T22:37:47.171Z,20.60
2022-09-25T22:40:22.738Z,21.08
2022-09-25T22:42:56.727Z,23.83
2022-09-25T22:45:30.754Z,23.52
2022-09-25T22:48:04.705Z,23.13
2022-09-25T22:50:38.730Z,20.85
2022-09-25T22:53:12.757Z,21.27
2022-09-25T22:55:48.970Z,19.27
2022-09-25T22:58:23.356Z,22.52
2022-09-25T23:00:57.353Z,19.58
2022-09-25T23:03:31.383Z,19.02
2022-09-25T23:06:05.940Z,20.33
2022-09-25T23:08:40.025Z,18.77
2022-09-25T23:11:15.408Z,28.65
2022-09-25T23:13:50.813Z,17.73
2022-09-25T23:16:25.446Z,17.52
2022-09-25T23:19:00.676Z,19.33
2022-09-25T23:21:34.889Z,17.10
2022-09-25T23:24:11.833Z,16.02
2022-09-25T23:26:47.414Z,17.48
2022-09-25T23:29:22.815Z,18.30
2022-09-25T23:31:56.704Z,18.40
2022-09-25T23:34:30.727Z,15.05
2022-09-25T23:37:04.803Z,17.45
2022-09-25T23:39:39.113Z,20.33
2022-09-25T23:42:14.639Z,28.13
2022-09-25T23:44:48.558Z,17.48
2022-09-25T23:47:24.947Z,18.75
2022-09-25T23:50:04.152Z,15.88
2022-09-25T23:52:38.678Z,17.00
2022-09-25T23:55:12.625Z,14.93
2022-09-25T23:57:47.946Z,16.65
